createdAt,value
2019-03-25T00:00:30.905Z,8.35
2019-03-25T00:03:02.124Z,8.38
2019-03-25T00:05:33.396Z,8.39
2019-03-25T00:08:06.090Z,8.35
2019-03-25T00:10:37.274Z,8.36
2019-03-25T00:13:08.393Z,8.33
2019-03-25T00:15:39.656Z,8.28
2019-03-25T00:18:10.878Z,8.25
2019-03-25T00:20:42.141Z,8.22
2019-03-25T00:23:13.358Z,8.22
2019-03-25T00:25:44.538Z,8.20
2019-03-25T00:28:15.577Z,8.22
2019-03-25T00:30:46.603Z,8.17
2019-03-25T00:33:17.696Z,8.10
2019-03-25T00:35:48.879Z,8.07
2019-03-25T00:38:20.012Z,7.99
2019-03-25T00:40:51.097Z,8.03
2019-03-25T00:43:22.179Z,7.97
2019-03-25T00:45:53.245Z,7.96
2019-03-25T00:48:24.388Z,7.89
2019-03-25T00:50:55.619Z,7.94
2019-03-25T00:53:26.814Z,7.90
2019-03-25T00:55:58.044Z,7.95
2019-03-25T00:58:29.187Z,7.93
2019-03-25T01:01:00.455Z,7.89
2019-03-25T01:03:31.771Z,7.89
2019-03-25T01:06:03.037Z,7.92
2019-03-25T01:08:34.410Z,7.83
2019-03-25T01:11:05.693Z,7.91
2019-03-25T01:13:43.398Z,7.84
2019-03-25T01:16:14.684Z,7.79
2019-03-25T01:18:45.840Z,7.74
2019-03-25T01:21:17.020Z,7.67
2019-03-25T01:23:48.076Z,7.66
2019-03-25T01:26:19.174Z,7.60
2019-03-25T01:28:50.377Z,7.60
2019-03-25T01:31:21.647Z,7.56
2019-03-25T01:33:52.901Z,7.61
2019-03-25T01:36:24.079Z,7.48
2019-03-25T01:38:55.217Z,7.52
2019-03-25T01:41:26.465Z,7.48
2019-03-25T01:43:57.653Z,7.40
2019-03-25T01:46:28.952Z,7.32
2019-03-25T01:49:00.080Z,7.30
2019-03-25T01:51:31.283Z,7.27
2019-03-25T01:54:02.480Z,7.40
2019-03-25T01:56:33.661Z,7.25
2019-03-25T01:59:04.800Z,7.22
2019-03-25T02:01:35.944Z,7.27
2019-03-25T02:04:07.093Z,7.28
2019-03-25T02:06:38.223Z,7.35
2019-03-25T02:09:10.177Z,7.32
2019-03-25T02:11:41.292Z,7.28
2019-03-25T02:14:13.516Z,7.31
2019-03-25T02:16:45.745Z,7.30
2019-03-25T02:19:16.905Z,7.25
2019-03-25T02:21:48.118Z,7.27
2019-03-25T02:24:19.191Z,7.22
2019-03-25T02:26:50.299Z,7.17
2019-03-25T02:29:21.403Z,7.18
2019-03-25T02:31:52.484Z,7.14
2019-03-25T02:34:23.593Z,7.11
2019-03-25T02:36:54.656Z,6.99
2019-03-25T02:39:25.694Z,6.97
2019-03-25T02:41:57.028Z,6.99
2019-03-25T02:44:30.254Z,6.88
2019-03-25T02:47:01.501Z,6.78
2019-03-25T02:49:32.581Z,6.66
2019-03-25T02:52:03.948Z,6.58
2019-03-25T02:54:35.056Z,6.43
2019-03-25T02:57:06.391Z,6.32
2019-03-25T02:59:37.594Z,6.30
2019-03-25T03:02:08.791Z,6.15
2019-03-25T03:04:39.981Z,6.00
2019-03-25T03:07:11.129Z,6.07
2019-03-25T03:09:42.255Z,6.20
2019-03-25T03:12:13.495Z,6.14
2019-03-25T03:14:44.624Z,6.01
2019-03-25T03:17:15.748Z,5.91
2019-03-25T03:19:48.560Z,5.90
2019-03-25T03:22:19.838Z,5.99
2019-03-25T03:24:57.744Z,6.04
2019-03-25T03:27:30.047Z,5.99
2019-03-25T03:30:01.334Z,6.05
2019-03-25T03:32:32.574Z,6.11
2019-03-25T03:35:03.818Z,6.19
2019-03-25T03:37:34.956Z,6.17
2019-03-25T03:40:07.646Z,6.14
2019-03-25T03:42:38.929Z,6.11
2019-03-25T03:45:10.378Z,6.11
2019-03-25T03:47:41.474Z,6.09
2019-03-25T03:50:24.504Z,6.10
2019-03-25T03:52:56.254Z,6.09
2019-03-25T03:55:29.910Z,6.10
2019-03-25T03:58:02.799Z,6.10
2019-03-25T04:00:37.789Z,5.98
2019-03-25T04:03:09.085Z,5.93
2019-03-25T04:05:40.202Z,5.90
2019-03-25T04:08:11.452Z,5.78
2019-03-25T04:10:42.555Z,5.69
2019-03-25T04:13:14.210Z,5.53
2019-03-25T04:15:45.437Z,5.46
2019-03-25T04:18:16.734Z,5.40
2019-03-25T04:20:47.855Z,5.23
2019-03-25T04:23:19.097Z,5.14
2019-03-25T04:25:50.224Z,5.11
2019-03-25T04:28:21.365Z,4.98
2019-03-25T04:30:52.581Z,4.96
2019-03-25T04:33:23.714Z,4.95
2019-03-25T04:35:54.868Z,4.81
2019-03-25T04:38:26.039Z,4.82
2019-03-25T04:40:57.192Z,4.80
2019-03-25T04:43:28.313Z,4.67
2019-03-25T04:45:59.408Z,4.59
2019-03-25T04:48:30.517Z,4.50
2019-03-25T04:51:01.865Z,4.48
2019-03-25T04:53:32.965Z,4.39
2019-03-25T04:56:04.211Z,4.23
2019-03-25T04:58:35.364Z,4.28
2019-03-25T05:01:06.761Z,4.34
2019-03-25T05:03:38.052Z,4.27
2019-03-25T05:06:09.324Z,4.21
2019-03-25T05:08:40.449Z,4.15
2019-03-25T05:11:12.693Z,4.06
2019-03-25T05:13:43.835Z,3.98
2019-03-25T05:16:15.044Z,3.92
2019-03-25T05:18:46.206Z,3.88
2019-03-25T05:21:17.366Z,3.84
2019-03-25T05:23:48.613Z,3.83
2019-03-25T05:26:19.809Z,3.91
2019-03-25T05:28:51.203Z,3.84
2019-03-25T05:33:54.693Z,3.91
2019-03-25T05:36:25.869Z,3.87
2019-03-25T05:38:57.201Z,3.87
2019-03-25T05:41:28.340Z,3.91
2019-03-25T05:43:59.523Z,3.98
2019-03-25T05:46:30.720Z,3.98
2019-03-25T05:49:01.820Z,4.03
2019-03-25T05:51:32.810Z,4.06
2019-03-25T05:54:04.012Z,4.09
2019-03-25T05:56:35.274Z,4.16
2019-03-25T05:59:06.468Z,4.15
2019-03-25T06:01:37.724Z,4.19
2019-03-25T06:04:08.840Z,4.27
2019-03-25T06:06:39.983Z,4.11
2019-03-25T06:09:10.995Z,4.30
2019-03-25T06:11:42.095Z,4.36
2019-03-25T06:14:13.263Z,5.54
2019-03-25T06:16:44.526Z,5.06
2019-03-25T06:19:15.708Z,4.88
2019-03-25T06:21:46.841Z,4.95
2019-03-25T06:24:18.254Z,5.04
2019-03-25T06:26:49.384Z,5.10
2019-03-25T06:29:20.496Z,5.22
2019-03-25T06:31:51.672Z,5.36
2019-03-25T06:34:22.804Z,5.38
2019-03-25T06:36:54.051Z,5.38
2019-03-25T06:39:25.321Z,5.59
2019-03-25T06:41:56.521Z,5.76
2019-03-25T06:44:27.706Z,5.75
2019-03-25T06:46:58.831Z,5.98
2019-03-25T06:49:29.993Z,6.27
2019-03-25T06:52:02.443Z,6.65
2019-03-25T06:54:33.852Z,6.55
2019-03-25T06:57:05.606Z,6.50
2019-03-25T06:59:36.692Z,6.63
2019-03-25T07:02:07.878Z,6.73
2019-03-25T07:04:39.346Z,6.74
2019-03-25T07:07:10.560Z,6.70
2019-03-25T07:09:41.566Z,6.72
2019-03-25T07:12:12.761Z,6.83
2019-03-25T07:14:44.082Z,6.85
2019-03-25T07:17:15.245Z,6.96
2019-03-25T07:19:46.398Z,7.02
2019-03-25T07:22:17.517Z,7.10
2019-03-25T07:24:48.782Z,7.18
2019-03-25T07:27:19.949Z,7.52
2019-03-25T07:29:51.077Z,7.43
2019-03-25T07:32:22.435Z,7.58
2019-03-25T07:34:53.647Z,7.42
2019-03-25T07:37:24.947Z,7.44
2019-03-25T07:39:56.024Z,7.41
2019-03-25T07:42:27.244Z,7.40
2019-03-25T07:44:58.466Z,7.70
2019-03-25T07:47:29.680Z,7.40
2019-03-25T07:50:00.764Z,7.74
2019-03-25T07:52:31.750Z,7.86
2019-03-25T07:55:02.937Z,7.49
2019-03-25T07:57:34.034Z,7.64
2019-03-25T08:00:13.483Z,7.66
2019-03-25T08:02:40.036Z,7.69
2019-03-25T08:07:53.523Z,8.28
2019-03-25T08:10:35.603Z,8.43
2019-03-25T08:13:07.037Z,8.39
2019-03-25T08:15:38.382Z,8.53
2019-03-25T08:18:09.673Z,8.67
2019-03-25T08:20:40.971Z,8.49
2019-03-25T08:23:12.176Z,8.56
2019-03-25T08:25:43.344Z,8.54
2019-03-25T08:28:14.486Z,8.78
2019-03-25T08:30:45.740Z,8.68
2019-03-25T08:33:16.864Z,8.59
2019-03-25T08:35:48.110Z,8.50
2019-03-25T08:38:19.268Z,8.56
2019-03-25T08:40:50.512Z,8.58
2019-03-25T08:43:21.752Z,8.84
2019-03-25T08:45:53.029Z,8.50
2019-03-25T08:48:24.276Z,8.62
2019-03-25T08:50:55.527Z,8.58
2019-03-25T08:53:26.664Z,8.51
2019-03-25T08:55:57.867Z,8.65
2019-03-25T08:58:29.030Z,8.93
2019-03-25T09:01:00.248Z,9.07
2019-03-25T09:03:31.449Z,9.27
2019-03-25T09:06:02.527Z,10.11
2019-03-25T09:08:33.765Z,9.59
2019-03-25T09:11:06.991Z,9.94
2019-03-25T09:13:37.793Z,9.09
2019-03-25T09:16:09.161Z,8.77
2019-03-25T09:18:40.459Z,8.65
2019-03-25T09:21:11.746Z,9.10
2019-03-25T09:23:43.049Z,9.16
2019-03-25T09:26:14.298Z,10.06
2019-03-25T09:28:45.546Z,10.43
2019-03-25T09:31:18.814Z,10.16
2019-03-25T09:33:50.585Z,9.89
2019-03-25T09:36:22.958Z,9.67
2019-03-25T09:38:54.102Z,9.34
2019-03-25T09:41:25.330Z,9.62
2019-03-25T09:43:56.797Z,9.39
2019-03-25T09:46:28.234Z,9.24
2019-03-25T09:48:59.548Z,8.93
2019-03-25T09:51:30.819Z,9.02
2019-03-25T09:54:02.022Z,8.92
2019-03-25T09:56:33.779Z,8.70
2019-03-25T09:59:06.069Z,8.78
2019-03-25T10:01:37.387Z,8.68
2019-03-25T10:04:08.666Z,8.40
2019-03-25T10:06:40.600Z,8.28
2019-03-25T10:09:13.217Z,8.10
2019-03-25T10:11:44.573Z,8.27
2019-03-25T10:14:15.986Z,8.46
2019-03-25T10:16:47.321Z,8.81
2019-03-25T10:19:19.472Z,9.03
2019-03-25T10:21:50.818Z,8.86
2019-03-25T10:24:27.660Z,8.87
2019-03-25T10:26:55.094Z,8.94
2019-03-25T10:29:26.630Z,8.59
2019-03-25T10:31:58.010Z,8.41
2019-03-25T10:34:29.194Z,8.98
2019-03-25T10:37:00.683Z,9.37
2019-03-25T10:39:31.868Z,9.05
2019-03-25T10:42:03.382Z,8.99
2019-03-25T10:44:34.628Z,8.73
2019-03-25T10:47:05.886Z,9.12
2019-03-25T10:49:37.238Z,8.86
2019-03-25T10:52:08.571Z,8.92
2019-03-25T10:54:40.043Z,9.06
2019-03-25T10:57:11.393Z,8.70
2019-03-25T10:59:42.881Z,9.31
2019-03-25T11:02:14.398Z,9.40
2019-03-25T11:04:45.823Z,8.54
2019-03-25T11:07:17.363Z,8.37
2019-03-25T11:09:48.653Z,8.60
2019-03-25T11:12:19.974Z,8.93
2019-03-25T11:14:51.210Z,9.60
2019-03-25T11:17:23.377Z,9.86
2019-03-25T11:19:55.537Z,9.30
2019-03-25T11:22:26.964Z,8.61
2019-03-25T11:24:58.207Z,8.59
2019-03-25T11:27:29.765Z,8.28
2019-03-25T11:30:02.211Z,9.07
2019-03-25T11:32:34.246Z,9.43
2019-03-25T11:35:05.924Z,9.74
2019-03-25T11:37:37.456Z,9.61
2019-03-25T11:40:09.959Z,9.02
2019-03-25T11:42:41.515Z,8.78
2019-03-25T11:45:13.516Z,8.69
2019-03-25T11:47:44.877Z,9.02
2019-03-25T11:50:16.167Z,9.16
2019-03-25T11:52:47.530Z,8.58
2019-03-25T11:55:18.722Z,8.50
2019-03-25T11:57:50.047Z,8.65
2019-03-25T12:00:23.327Z,8.99
2019-03-25T12:02:54.321Z,9.63
2019-03-25T12:05:25.291Z,9.72
2019-03-25T12:07:56.486Z,10.08
2019-03-25T12:10:27.652Z,10.17
2019-03-25T12:12:58.813Z,10.25
2019-03-25T12:15:30.037Z,9.18
2019-03-25T12:18:01.383Z,8.53
2019-03-25T12:20:32.564Z,7.40
2019-03-25T12:23:03.920Z,6.67
2019-03-25T12:25:35.144Z,7.41
2019-03-25T12:28:06.483Z,7.87
2019-03-25T12:30:37.803Z,8.64
2019-03-25T12:33:09.064Z,8.95
2019-03-25T12:35:40.280Z,8.65
2019-03-25T12:38:11.459Z,9.34
2019-03-25T12:40:42.839Z,9.11
2019-03-25T12:43:14.015Z,8.86
2019-03-25T12:45:45.252Z,8.57
2019-03-25T12:48:16.417Z,8.38
2019-03-25T12:50:47.680Z,6.53
2019-03-25T12:53:18.851Z,5.54
2019-03-25T12:55:50.062Z,5.20
2019-03-25T12:58:21.158Z,5.40
2019-03-25T13:00:52.381Z,5.58
2019-03-25T13:03:23.667Z,6.26
2019-03-25T13:05:54.948Z,6.35
2019-03-25T13:08:32.982Z,6.39
2019-03-25T13:10:59.200Z,6.80
2019-03-25T13:13:30.744Z,6.99
2019-03-25T13:16:01.978Z,7.23
2019-03-25T13:18:33.907Z,7.58
2019-03-25T13:21:06.043Z,7.59
2019-03-25T13:23:37.129Z,7.70
2019-03-25T13:26:08.345Z,8.05
2019-03-25T13:28:39.487Z,7.66
2019-03-25T13:31:10.556Z,8.14
2019-03-25T13:33:41.643Z,8.54
2019-03-25T13:36:12.904Z,8.95
2019-03-25T13:38:44.126Z,9.23
2019-03-25T13:41:15.230Z,9.33
2019-03-25T13:43:46.546Z,9.19
2019-03-25T13:46:20.816Z,9.92
2019-03-25T13:48:51.932Z,10.13
2019-03-25T13:51:25.169Z,9.79
2019-03-25T13:53:56.414Z,9.85
2019-03-25T13:56:27.602Z,9.64
2019-03-25T13:58:58.760Z,9.56
2019-03-25T14:01:29.951Z,9.35
2019-03-25T14:04:01.177Z,9.27
2019-03-25T14:06:32.278Z,9.04
2019-03-25T14:09:05.208Z,8.80
2019-03-25T14:11:36.513Z,8.09
2019-03-25T14:14:07.826Z,6.97
2019-03-25T14:16:39.106Z,6.08
2019-03-25T14:19:10.425Z,5.75
2019-03-25T14:21:41.703Z,5.78
2019-03-25T14:24:12.806Z,5.44
2019-03-25T14:26:44.057Z,5.26
2019-03-25T14:29:15.172Z,5.47
2019-03-25T14:31:46.351Z,5.71
2019-03-25T14:34:17.555Z,5.54
2019-03-25T14:36:49.021Z,5.31
2019-03-25T14:39:20.166Z,5.85
2019-03-25T14:41:51.421Z,6.03
2019-03-25T14:44:22.660Z,6.20
2019-03-25T14:46:53.886Z,6.90
2019-03-25T14:49:25.143Z,7.06
2019-03-25T14:51:56.337Z,7.13
2019-03-25T14:54:27.606Z,7.11
2019-03-25T14:56:58.817Z,7.47
2019-03-25T14:59:29.964Z,8.25
2019-03-25T15:02:01.254Z,8.32
2019-03-25T15:04:32.451Z,8.49
2019-03-25T15:07:03.645Z,8.07
2019-03-25T15:09:36.880Z,8.13
2019-03-25T15:12:07.860Z,8.29
2019-03-25T15:14:39.710Z,8.36
2019-03-25T15:17:10.972Z,8.36
2019-03-25T15:19:42.137Z,8.59
2019-03-25T15:22:13.411Z,8.48
2019-03-25T15:24:44.686Z,8.13
2019-03-25T15:27:16.866Z,8.44
2019-03-25T15:29:48.079Z,9.12
2019-03-25T15:32:19.443Z,9.42
2019-03-25T15:34:50.674Z,9.13
2019-03-25T15:37:21.834Z,8.82
2019-03-25T15:39:53.075Z,8.45
2019-03-25T15:42:24.492Z,8.38
2019-03-25T15:44:55.523Z,8.48
2019-03-25T15:47:26.826Z,8.51
2019-03-25T15:49:58.045Z,8.64
2019-03-25T15:52:29.225Z,8.19
2019-03-25T15:55:00.535Z,8.15
2019-03-25T15:57:31.716Z,8.09
2019-03-25T16:00:02.869Z,8.01
2019-03-25T16:02:34.026Z,8.07
2019-03-25T16:05:05.400Z,8.01
2019-03-25T16:07:37.009Z,7.94
2019-03-25T16:10:08.454Z,8.01
2019-03-25T16:12:40.007Z,8.14
2019-03-25T16:15:12.518Z,8.08
2019-03-25T16:17:43.696Z,8.07
2019-03-25T16:20:15.999Z,8.38
2019-03-25T16:22:47.326Z,8.46
2019-03-25T16:25:29.089Z,8.33
2019-03-25T16:28:00.651Z,7.98
2019-03-25T16:30:31.781Z,8.29
2019-03-25T16:33:03.148Z,8.19
2019-03-25T16:35:34.278Z,8.41
2019-03-25T16:38:05.362Z,8.09
2019-03-25T16:40:36.819Z,7.89
2019-03-25T16:43:08.127Z,7.71
2019-03-25T16:45:39.302Z,7.95
2019-03-25T16:48:10.539Z,7.82
2019-03-25T16:50:41.759Z,7.79
2019-03-25T16:53:12.907Z,7.64
2019-03-25T16:55:44.121Z,7.55
2019-03-25T16:58:15.521Z,7.68
2019-03-25T17:00:46.847Z,7.54
2019-03-25T17:03:18.124Z,7.47
2019-03-25T17:05:49.439Z,7.27
2019-03-25T17:08:20.691Z,7.20
2019-03-25T17:10:51.869Z,6.91
2019-03-25T17:13:23.043Z,6.82
2019-03-25T17:15:54.208Z,6.73
2019-03-25T17:18:25.436Z,6.58
2019-03-25T17:20:56.715Z,6.47
2019-03-25T17:23:27.971Z,6.36
2019-03-25T17:25:59.088Z,6.27
2019-03-25T17:28:30.310Z,6.07
2019-03-25T17:31:03.112Z,5.87
2019-03-25T17:33:34.489Z,5.79
2019-03-25T17:36:05.809Z,5.60
2019-03-25T17:38:37.720Z,5.50
2019-03-25T17:41:08.884Z,5.37
2019-03-25T17:43:40.156Z,5.45
2019-03-25T17:46:11.337Z,5.52
2019-03-25T17:48:42.918Z,5.65
2019-03-25T17:51:14.303Z,5.69
2019-03-25T17:53:45.520Z,5.75
2019-03-25T17:56:16.675Z,5.67
2019-03-25T17:58:49.185Z,5.61
2019-03-25T18:01:31.735Z,5.56
2019-03-25T18:03:54.484Z,5.46
2019-03-25T18:06:25.865Z,5.47
2019-03-25T18:08:56.976Z,5.41
2019-03-25T18:11:28.337Z,5.31
2019-03-25T18:13:59.428Z,5.32
2019-03-25T18:16:30.649Z,5.18
2019-03-25T18:19:01.876Z,5.26
2019-03-25T18:21:33.088Z,5.11
2019-03-25T18:24:04.356Z,5.09
2019-03-25T18:26:35.510Z,4.96
2019-03-25T18:29:06.866Z,5.02
2019-03-25T18:31:43.285Z,4.99
2019-03-25T18:34:10.924Z,5.00
2019-03-25T18:36:42.014Z,5.04
2019-03-25T18:39:13.227Z,5.10
2019-03-25T18:41:44.401Z,5.18
2019-03-25T18:44:16.065Z,5.19
2019-03-25T18:46:47.319Z,5.23
2019-03-25T18:49:18.540Z,5.26
2019-03-25T18:51:49.754Z,5.28
2019-03-25T18:54:20.977Z,5.23
2019-03-25T18:56:52.308Z,5.29
2019-03-25T18:59:23.443Z,5.28
2019-03-25T19:01:55.020Z,5.31
2019-03-25T19:04:27.386Z,5.38
2019-03-25T19:06:58.740Z,5.35
2019-03-25T19:09:30.385Z,5.35
2019-03-25T19:12:01.580Z,5.41
2019-03-25T19:14:32.699Z,5.41
2019-03-25T19:17:05.413Z,5.35
2019-03-25T19:19:36.685Z,5.40
2019-03-25T19:22:07.763Z,5.44
2019-03-25T19:24:38.778Z,5.54
2019-03-25T19:27:10.127Z,5.58
2019-03-25T19:29:41.368Z,5.53
2019-03-25T19:32:12.527Z,5.64
2019-03-25T19:34:43.601Z,5.64
2019-03-25T19:37:14.825Z,5.60
2019-03-25T19:39:45.942Z,5.64
2019-03-25T19:42:17.201Z,5.52
2019-03-25T19:44:48.454Z,5.45
2019-03-25T19:47:19.511Z,5.41
2019-03-25T19:49:51.111Z,5.39
2019-03-25T19:52:22.301Z,5.38
2019-03-25T19:54:53.531Z,5.36
2019-03-25T19:57:24.815Z,5.18
2019-03-25T19:59:56.030Z,5.24
2019-03-25T20:02:27.200Z,5.13
2019-03-25T20:04:58.271Z,5.15
2019-03-25T20:07:29.502Z,5.12
2019-03-25T20:10:00.744Z,5.05
2019-03-25T20:12:31.959Z,4.94
2019-03-25T20:15:03.240Z,4.69
2019-03-25T20:17:34.346Z,4.56
2019-03-25T20:20:06.564Z,4.62
2019-03-25T20:22:38.079Z,4.46
2019-03-25T20:25:09.535Z,4.33
2019-03-25T20:27:40.592Z,4.26
2019-03-25T20:30:12.453Z,4.25
2019-03-25T20:32:43.755Z,4.28
2019-03-25T20:35:15.006Z,4.20
2019-03-25T20:37:46.390Z,4.17
2019-03-25T20:40:17.658Z,4.22
2019-03-25T20:42:49.059Z,4.20
2019-03-25T20:45:20.288Z,4.16
2019-03-25T20:47:51.603Z,4.04
2019-03-25T20:50:22.692Z,4.02
2019-03-25T20:52:54.052Z,4.14
2019-03-25T20:55:25.098Z,4.18
2019-03-25T20:57:56.496Z,4.12
2019-03-25T21:03:24.201Z,4.01
2019-03-25T21:05:55.556Z,4.08
2019-03-25T21:08:26.930Z,4.02
2019-03-25T21:10:58.232Z,4.01
2019-03-25T21:13:30.117Z,4.07
2019-03-25T21:16:03.512Z,4.12
2019-03-25T21:18:34.897Z,4.04
2019-03-25T21:21:06.083Z,4.10
2019-03-25T21:23:37.144Z,3.99
2019-03-25T21:26:10.908Z,4.07
2019-03-25T21:28:41.836Z,4.04
2019-03-25T21:31:13.170Z,4.04
2019-03-25T21:33:44.428Z,3.97
2019-03-25T21:36:15.811Z,3.79
2019-03-25T21:38:47.089Z,3.90
2019-03-25T21:41:18.371Z,3.87
2019-03-25T21:43:49.604Z,3.90
2019-03-25T21:46:20.780Z,3.76
2019-03-25T21:48:52.277Z,3.82
2019-03-25T21:51:23.643Z,3.76
2019-03-25T21:53:54.809Z,3.76
2019-03-25T21:56:26.003Z,3.72
2019-03-25T21:59:00.270Z,3.79
2019-03-25T22:01:30.192Z,3.85
2019-03-25T22:04:01.704Z,3.80
2019-03-25T22:06:32.808Z,3.76
2019-03-25T22:09:04.604Z,3.79
2019-03-25T22:11:35.729Z,3.82
2019-03-25T22:14:06.978Z,3.74
2019-03-25T22:16:38.304Z,3.77
2019-03-25T22:19:09.452Z,3.71
2019-03-25T22:21:40.701Z,3.70
2019-03-25T22:24:11.889Z,3.74
2019-03-25T22:26:42.989Z,3.67
2019-03-25T22:29:14.176Z,3.67
2019-03-25T22:31:47.375Z,3.65
2019-03-25T22:34:18.346Z,3.61
2019-03-25T22:36:49.657Z,3.62
2019-03-25T22:39:20.820Z,3.56
2019-03-25T22:41:51.922Z,3.65
2019-03-25T22:44:23.063Z,3.60
2019-03-25T22:46:54.212Z,3.58
2019-03-25T22:49:25.193Z,3.59
2019-03-25T22:51:56.497Z,3.57
2019-03-25T22:54:27.504Z,3.60
2019-03-25T22:56:58.735Z,3.60
2019-03-25T22:59:30.151Z,3.60
2019-03-25T23:02:01.369Z,3.59
2019-03-25T23:04:32.566Z,3.66
2019-03-25T23:07:03.651Z,3.68
2019-03-25T23:09:34.865Z,3.68
2019-03-25T23:12:06.068Z,3.72
2019-03-25T23:14:37.209Z,3.76
2019-03-25T23:17:08.333Z,3.85
2019-03-25T23:19:39.429Z,3.69
2019-03-25T23:22:10.405Z,3.79
2019-03-25T23:24:41.561Z,3.83
2019-03-25T23:27:12.751Z,3.87
2019-03-25T23:29:43.866Z,3.88
2019-03-25T23:32:14.902Z,3.81
2019-03-25T23:34:46.113Z,3.79
2019-03-25T23:37:18.319Z,3.81
2019-03-25T23:39:49.617Z,3.81
2019-03-25T23:42:20.846Z,3.81
2019-03-25T23:44:51.977Z,3.76
2019-03-25T23:47:23.338Z,3.69
2019-03-25T23:49:54.390Z,3.63
2019-03-25T23:52:25.578Z,3.56
2019-03-25T23:54:56.653Z,3.62
2019-03-25T23:57:27.697Z,3.59
2019-03-25T23:59:58.999Z,3.58
